Messwerte Sarh

Temperatur

Temperatur
°C
1603292400 16.00 16.00 33
1603296000 17.00 17.00 32
1603299600 18.00 18.00 30
1603303200 19.00 19.00 29
1603306800 20.00 20.00
1603310400 21.00 21.00 28
1603314000 22.00 22.00 26
1603317600 23.00 23.00 26
1603321200 0.00 0.00 26
1603324800 1.00 1.00 25
1603328400 2.00 2.00 25
1603332000 3.00 3.00 25
1603335600 4.00 4.00 24
1603339200 5.00 5.00
1603342800 6.00 6.00 25
1603346400 7.00 7.00 25
1603350000 8.00 8.00 26
1603353600 9.00 9.00 29
1603357200 10.00 10.00 30
1603360800 11.00 11.00 32
1603364400 12.00 12.00 33
1603368000 13.00 13.00 33
1603371600 14.00 14.00 34
1603375200 15.00 15.00 34

Aktuellste Messwerte

Wettercharakter
Wetter: recht sonnig
Temperatur
34 °C
Feuchtigkeit
45 %
Wind
5 km/hWindrichtung: Ost
Luftdruck
1009 hPa
Messzeit: 22. Oktober 2020, 15.00Datenquelle: METAR

Weitere Messstationen in der Nähe

Messstation Temperatur Entfernung
N’Djamena 39 °C 493 km

Wind

Windrichtung Böen Mittelwind
° km/h km/h
1603292400 16.00 15.00 - 16.00 240° 10
1603296000 17.00 16.00 - 17.00 220° 5
1603299600 18.00 17.00 - 18.00 0
1603303200 19.00 18.00 - 19.00 0
1603306800 20.00 19.00 - 20.00
1603310400 21.00 20.00 - 21.00 0
1603314000 22.00 21.00 - 22.00 0
1603317600 23.00 22.00 - 23.00 0
1603321200 0.00 23.00 - 0.00 0
1603324800 1.00 0.00 - 1.00 0
1603328400 2.00 1.00 - 2.00 0
1603332000 3.00 2.00 - 3.00 180° 10
1603335600 4.00 3.00 - 4.00 180° 5
1603339200 5.00 4.00 - 5.00
1603342800 6.00 5.00 - 6.00 200° 10
1603346400 7.00 6.00 - 7.00 180° 10
1603350000 8.00 7.00 - 8.00 0
1603353600 9.00 8.00 - 9.00 0
1603357200 10.00 9.00 - 10.00 0
1603360800 11.00 10.00 - 11.00 0
1603364400 12.00 11.00 - 12.00 0
1603368000 13.00 12.00 - 13.00 180° 5
1603371600 14.00 13.00 - 14.00 140° 5
1603375200 15.00 14.00 - 15.00 80° 5

Ihre Wetterstation

Fehlt Ihre Wetterstation auf unserem Portal?

Schreiben Sie an network@meteonews.ch